Time;durP1;ratioP1;P1;durP2;ratioP2;P2;SDS_P1;SDS_P2;PMS_P1;PMS_P2;Temp;Humidity;BMP_temperature;BMP_pressure;BME280_temperature;BME280_humidity;BME280_pressure;Samples;Min_cycle;Max_cycle;Signal;HPM_P1;HPM_P2
2022/11/04 00:04:59;;;;;;;20.60;11.10;;;;;;;8.92;84.16;98061.05;214201;1308;22485;-73
2022/11/04 00:10:01;;;;;;;19.60;9.90;;;;;;;8.94;84.26;98059.09;214332;1308;22475;-72
2022/11/04 00:36:29;;;;;;;14.00;7.70;;;;;;;9.95;82.67;98028.73;214300;1295;25491;-72
2022/11/04 00:41:31;;;;;;;12.90;7.70;;;;;;;10.14;82.39;98021.67;214077;1308;22471;-72
2022/11/04 00:46:33;;;;;;;12.70;7.00;;;;;;;10.27;82.11;98021.68;214128;1308;23689;-72
2022/11/04 00:51:35;;;;;;;15.30;8.40;;;;;;;10.34;81.83;98030.16;214013;1309;22474;-72
2022/11/04 00:56:38;;;;;;;15.60;8.20;;;;;;;10.34;81.89;98023.46;214250;1309;25496;-72
2022/11/04 01:01:40;;;;;;;15.00;7.40;;;;;;;10.32;81.72;98013.17;214085;1310;22569;-71
2022/11/04 01:06:43;;;;;;;12.40;7.80;;;;;;;10.30;81.75;98013.32;214190;1309;22504;-72
2022/11/04 01:11:45;;;;;;;13.20;7.30;;;;;;;10.27;81.56;98003.38;214018;1309;25429;-73
2022/11/04 01:16:50;;;;;;;15.70;7.90;;;;;;;10.23;81.50;97995.61;213950;1310;22628;-72
2022/11/04 01:21:52;;;;;;;12.20;7.20;;;;;;;10.20;81.81;97984.74;213916;1309;24364;-72
2022/11/04 01:26:54;;;;;;;11.20;6.40;;;;;;;10.18;81.70;97983.35;214259;1308;25238;-72
2022/11/04 01:31:56;;;;;;;15.80;7.90;;;;;;;10.17;81.79;97973.16;213959;1310;24399;-73
2022/11/04 01:36:58;;;;;;;12.20;7.00;;;;;;;10.18;81.73;97967.41;214052;1310;22462;-72
2022/11/04 01:42:00;;;;;;;15.10;7.00;;;;;;;10.21;81.63;97968.95;214022;1309;22474;-74
2022/11/04 01:47:03;;;;;;;12.40;7.00;;;;;;;10.25;81.69;97961.61;214095;1308;25092;-72
2022/11/04 01:52:14;;;;;;;10.20;6.50;;;;;;;10.28;81.42;97954.20;214298;1308;25367;-72
2022/11/04 01:57:24;;;;;;;11.20;6.40;;;;;;;10.30;81.27;97946.87;213977;1308;22534;-72
2022/11/04 02:02:26;;;;;;;15.70;7.70;;;;;;;10.28;81.06;97940.39;213804;1308;22498;-72
2022/11/04 02:07:28;;;;;;;11.10;6.30;;;;;;;10.23;81.03;97928.00;213839;1309;22471;-73
2022/11/04 02:12:48;;;;;;;11.40;7.30;;;;;;;10.15;81.08;97920.86;213677;1309;262471;-72
2022/11/04 02:18:09;;;;;;;;;;;;;;;10.06;81.29;97916.85;214096;1309;25366;-72
2022/11/04 02:23:47;;;;;;;12.90;7.00;;;;;;;9.98;81.36;97911.23;214213;1309;22486;-72
2022/11/04 02:29:17;;;;;;;13.70;8.00;;;;;;;9.92;81.51;97907.66;213974;1309;25319;-73
2022/11/04 02:34:24;;;;;;;15.10;8.10;;;;;;;9.89;81.65;97901.38;214149;1308;24324;-71
2022/11/04 02:39:50;;;;;;;15.50;7.80;;;;;;;9.85;81.60;97896.66;214033;1308;23751;-72
2022/11/04 02:45:20;;;;;;;13.90;7.50;;;;;;;9.81;81.67;97900.00;214110;1308;25422;-72
2022/11/04 02:50:32;;;;;;;11.40;7.10;;;;;;;9.80;81.75;97899.93;214230;1308;22490;-72
2022/11/04 02:55:42;;;;;;;14.00;7.60;;;;;;;9.78;81.79;97900.84;213820;1308;22485;-72
2022/11/04 03:00:45;;;;;;;16.30;8.50;;;;;;;9.79;81.88;97897.98;213982;1308;22513;-71
2022/11/04 03:05:51;;;;;;;13.30;7.90;;;;;;;9.79;81.72;97902.69;214029;1308;22718;-72
2022/11/04 03:10:58;;;;;;;12.30;7.10;;;;;;;9.81;81.66;97893.21;214230;1308;22471;-73
2022/11/04 03:16:07;;;;;;;15.90;8.00;;;;;;;9.86;81.61;97889.18;214050;1308;22468;-72
2022/11/04 03:21:14;;;;;;;12.50;6.90;;;;;;;9.92;81.44;97884.11;214158;1307;22457;-71
2022/11/04 03:26:31;;;;;;;11.00;7.60;;;;;;;9.96;81.35;97873.06;214270;1302;22543;-72
2022/11/04 03:31:53;;;;;;;16.50;7.90;;;;;;;9.98;80.97;97862.90;214206;1308;22725;-72
2022/11/04 03:36:56;;;;;;;11.70;6.30;;;;;;;9.99;81.16;97856.09;213987;1308;22490;-72
2022/11/04 03:42:18;;;;;;;13.50;8.00;;;;;;;9.95;80.87;97855.97;214044;1308;24437;-72
2022/11/04 03:47:24;;;;;;;14.30;7.90;;;;;;;9.88;80.99;97847.90;214091;1308;25419;-72
2022/11/04 03:52:26;;;;;;;14.40;8.10;;;;;;;9.76;81.09;97848.83;214146;1308;25333;-73
2022/11/04 03:57:50;;;;;;;15.90;7.80;;;;;;;9.64;81.25;97854.14;214053;1308;25286;-72
2022/11/04 04:03:05;;;;;;;16.00;8.60;;;;;;;9.50;81.50;97850.52;214148;1308;23175;-72
2022/11/04 04:08:33;;;;;;;16.20;8.70;;;;;;;9.34;81.58;97841.00;214099;1308;25219;-71
2022/11/04 04:13:35;;;;;;;12.90;7.40;;;;;;;9.17;81.68;97826.06;214084;1308;22522;-72
2022/11/04 04:18:51;;;;;;;14.30;7.30;;;;;;;9.06;81.83;97815.27;214001;1308;22481;-73
2022/11/04 04:29:28;;;;;;;15.80;6.70;;;;;;;8.85;82.10;97809.33;214170;1308;22673;-72
2022/11/04 04:34:32;;;;;;;13.40;6.80;;;;;;;8.79;82.18;97807.33;214157;1294;22482;-72
2022/11/04 04:45:04;;;;;;;11.80;7.10;;;;;;;8.81;82.35;97800.70;214126;1308;22916;-72
2022/11/04 04:50:07;;;;;;;13.20;7.10;;;;;;;8.85;82.23;97793.95;214079;1308;22754;-72
2022/11/04 04:55:11;;;;;;;14.20;8.10;;;;;;;8.81;82.12;97790.45;213968;1308;25232;-72
2022/11/04 05:00:18;;;;;;;12.70;7.60;;;;;;;8.69;82.04;97788.77;214257;1308;24290;-71
2022/11/04 05:05:20;;;;;;;13.10;7.50;;;;;;;8.56;82.13;97786.32;213857;1308;22570;-72
2022/11/04 05:10:22;;;;;;;17.10;9.10;;;;;;;8.43;82.35;97777.34;214054;1309;22477;-72
2022/11/04 05:15:30;;;;;;;18.50;10.10;;;;;;;8.31;82.40;97764.34;214091;1308;25368;-72
2022/11/04 05:20:33;;;;;;;17.90;9.20;;;;;;;8.24;82.61;97771.73;214126;1308;26373;-72
2022/11/04 05:25:35;;;;;;;16.20;8.80;;;;;;;8.22;82.85;97772.34;214146;1308;25351;-71
2022/11/04 05:30:37;;;;;;;19.60;9.60;;;;;;;8.18;83.06;97771.90;213935;1308;22518;-72
2022/11/04 05:35:39;;;;;;;17.00;9.90;;;;;;;8.19;83.18;97767.58;214037;1293;25567;-72
2022/11/04 05:40:41;;;;;;;22.50;10.10;;;;;;;8.22;83.40;97762.92;213991;1308;22456;-72
2022/11/04 05:45:42;;;;;;;22.70;10.30;;;;;;;8.27;83.52;97762.91;214163;1308;22488;-73
2022/11/04 05:50:44;;;;;;;26.00;12.80;;;;;;;8.34;83.61;97764.81;214194;1308;23786;-72
2022/11/04 05:55:46;;;;;;;45.20;21.50;;;;;;;8.42;83.69;97771.17;213956;1308;22500;-72
2022/11/04 06:00:48;;;;;;;46.10;20.30;;;;;;;8.54;83.83;97775.98;214041;1308;24327;-71
2022/11/04 06:05:50;;;;;;;37.80;19.00;;;;;;;8.68;83.88;97778.77;213895;1310;26388;-73
2022/11/04 06:10:52;;;;;;;53.70;23.60;;;;;;;8.82;83.79;97784.62;214113;1297;23838;-72
2022/11/04 06:15:54;;;;;;;32.10;13.80;;;;;;;8.94;83.85;97790.02;213953;1310;24259;-72
2022/11/04 06:21:14;;;;;;;17.00;9.70;;;;;;;9.02;83.77;97793.73;214094;1310;22526;-72
2022/11/04 06:26:16;;;;;;;19.80;8.60;;;;;;;9.11;83.68;97796.27;214089;1310;22485;-73
2022/11/04 06:31:19;;;;;;;22.00;9.00;;;;;;;9.18;83.77;97801.29;214003;1310;22608;-71
2022/11/04 06:36:21;;;;;;;15.00;8.80;;;;;;;9.25;83.61;97805.27;214099;1284;24344;-71
2022/11/04 06:41:23;;;;;;;20.10;8.40;;;;;;;9.35;83.48;97798.80;214220;1287;22602;-73
2022/11/04 06:46:39;;;;;;;16.80;8.30;;;;;;;9.47;83.11;97802.47;214377;1310;25273;-72
2022/11/04 06:51:40;;;;;;;16.40;8.50;;;;;;;9.60;83.01;97805.48;214366;1309;22533;-72
2022/11/04 06:56:43;;;;;;;16.60;9.00;;;;;;;9.67;82.81;97805.67;214438;1279;24434;-73
2022/11/04 07:01:47;;;;;;;19.90;9.60;;;;;;;9.74;82.69;97805.66;214944;1280;25429;-72
2022/11/04 07:06:50;;;;;;;16.20;8.00;;;;;;;9.81;82.83;97799.17;214652;1280;22510;-73
2022/11/04 07:11:51;;;;;;;17.90;9.30;;;;;;;9.87;82.51;97798.92;214550;1278;25333;-73
2022/11/04 07:16:53;;;;;;;17.10;9.80;;;;;;;9.94;82.39;97795.02;214478;1278;25233;-72
2022/11/04 07:21:56;;;;;;;21.00;9.00;;;;;;;10.04;82.21;97795.20;215582;1280;25205;-73
2022/11/04 07:26:59;;;;;;;15.20;8.30;;;;;;;10.14;82.25;97794.67;214687;1278;22478;-73
2022/11/04 07:32:06;;;;;;;13.50;6.90;;;;;;;10.22;82.18;97790.67;214393;1280;26351;-73
2022/11/04 07:37:08;;;;;;;14.30;9.10;;;;;;;10.23;82.09;97789.23;214478;1277;25341;-73
2022/11/04 07:42:10;;;;;;;24.60;8.50;;;;;;;10.26;82.04;97787.89;215126;1279;138361;-72
2022/11/04 07:47:13;;;;;;;18.40;8.30;;;;;;;10.29;81.78;97779.60;215095;1280;138747;-72
2022/11/04 07:52:15;;;;;;;19.90;8.30;;;;;;;10.36;81.84;97783.09;214440;1284;138586;-72
2022/11/04 07:57:17;;;;;;;15.50;8.90;;;;;;;10.47;81.84;97780.89;214391;1280;22709;-74
2022/11/04 08:02:19;;;;;;;19.00;8.30;;;;;;;10.60;81.64;97781.33;214442;1280;137901;-72
2022/11/04 08:07:28;;;;;;;19.20;7.60;;;;;;;10.76;81.54;97768.70;214447;1287;138866;-75
2022/11/04 08:12:31;;;;;;;16.40;7.60;;;;;;;10.95;81.13;97765.51;214459;1279;138644;-73
2022/11/04 08:17:33;;;;;;;17.50;7.50;;;;;;;11.14;80.93;97764.42;214502;1280;138625;-72
2022/11/04 08:22:35;;;;;;;11.10;6.60;;;;;;;11.32;80.66;97758.06;214376;1278;138488;-72
2022/11/04 08:27:37;;;;;;;13.30;6.30;;;;;;;11.48;80.36;97754.76;214458;1279;138408;-72
2022/11/04 08:32:39;;;;;;;14.40;6.80;;;;;;;11.65;80.23;97756.52;214907;1280;24280;-72
2022/11/04 08:37:40;;;;;;;12.50;6.60;;;;;;;11.83;80.19;97749.42;214749;1294;138172;-72
2022/11/04 08:42:42;;;;;;;12.30;6.40;;;;;;;12.01;80.13;97735.66;215085;1287;138479;-73
2022/11/04 08:47:44;;;;;;;12.40;6.00;;;;;;;12.20;79.90;97727.44;214888;1286;138536;-72
2022/11/04 08:52:47;;;;;;;11.90;6.00;;;;;;;12.35;79.68;97725.58;214689;1282;138522;-71
2022/11/04 08:57:49;;;;;;;13.90;6.30;;;;;;;12.48;79.40;97728.34;214681;1280;139009;-73
2022/11/04 09:02:51;;;;;;;12.40;6.30;;;;;;;12.59;79.18;97723.17;214907;1280;22609;-73
2022/11/04 09:07:54;;;;;;;11.70;6.10;;;;;;;12.70;79.08;97724.33;214393;1278;138801;-72
2022/11/04 09:12:56;;;;;;;12.50;6.10;;;;;;;12.79;78.94;97724.60;214506;1287;138645;-72
2022/11/04 09:17:58;;;;;;;9.50;5.90;;;;;;;12.87;78.82;97721.58;214366;1286;138458;-72
2022/11/04 09:23:00;;;;;;;12.70;6.20;;;;;;;12.94;78.71;97712.76;214322;1284;139482;-72
2022/11/04 09:28:03;;;;;;;16.70;6.30;;;;;;;13.08;78.76;97709.79;214594;1287;138390;-73
2022/11/04 09:33:05;;;;;;;11.40;6.40;;;;;;;13.26;78.71;97709.70;214371;1310;22501;-73
2022/11/04 09:38:07;;;;;;;12.00;6.00;;;;;;;13.41;78.37;97708.55;214382;1294;138274;-72
2022/11/04 09:43:38;;;;;;;10.30;5.80;;;;;;;13.52;78.22;97705.02;214785;1280;138363;-73
2022/11/04 09:48:52;;;;;;;9.70;5.80;;;;;;;13.63;77.89;97705.27;214465;1285;139443;-72
2022/11/04 09:54:01;;;;;;;13.10;6.60;;;;;;;13.69;77.90;97699.88;214384;1287;138318;-72
2022/11/04 09:59:05;;;;;;;10.40;5.60;;;;;;;13.78;77.86;97702.23;214243;1280;139529;-72
2022/11/04 10:04:32;;;;;;;14.10;5.90;;;;;;;13.82;77.52;97705.42;214245;1310;139076;-73
2022/11/04 10:09:42;;;;;;;10.60;5.90;;;;;;;13.82;77.38;97705.05;214287;1301;138443;-73
2022/11/04 10:14:49;;;;;;;;;;;;;;;13.87;77.60;97703.97;214586;1310;22505;-72
2022/11/04 10:20:16;;;;;;;16.10;6.60;;;;;;;13.93;77.55;97700.70;214399;1286;124854;-72
2022/11/04 10:25:26;;;;;;;13.40;6.40;;;;;;;13.99;77.44;97696.66;214436;1287;138278;-73
2022/11/04 10:30:30;;;;;;;;;;;;;;;13.97;76.72;97693.89;214461;1280;138569;-74
2022/11/04 10:35:41;;;;;;;12.20;6.30;;;;;;;13.89;76.61;97691.02;214584;1280;124680;-73
2022/11/04 10:40:50;;;;;;;10.50;6.60;;;;;;;13.84;76.30;97693.80;214631;1287;139214;-73
2022/11/04 10:46:21;;;;;;;19.60;8.90;;;;;;;13.81;76.26;97691.34;214896;1280;138863;-73
2022/11/04 10:51:23;;;;;;;11.20;6.90;;;;;;;13.84;76.49;97696.51;214303;1287;22532;-71
2022/11/04 10:56:41;;;;;;;16.10;7.70;;;;;;;13.89;76.86;97692.26;214307;1309;138099;-70
2022/11/04 11:01:55;;;;;;;12.60;6.60;;;;;;;14.00;77.11;97688.98;214322;1285;139097;-71
2022/11/04 11:06:59;;;;;;;17.30;8.30;;;;;;;14.04;76.90;97690.23;214516;1287;138390;-71
2022/11/04 11:12:11;;;;;;;11.70;7.90;;;;;;;14.03;76.93;97689.40;214201;1306;138830;-71
2022/11/04 11:17:33;;;;;;;13.50;8.20;;;;;;;14.07;77.04;97680.89;214435;1286;138916;-71
2022/11/04 11:22:40;;;;;;;13.60;10.00;;;;;;;14.13;77.07;97678.64;214488;1280;139243;-70
2022/11/04 11:27:48;;;;;;;15.30;7.90;;;;;;;14.14;76.64;97677.13;214440;1286;138971;-71
2022/11/04 11:33:00;;;;;;;10.10;6.50;;;;;;;14.12;76.62;97664.52;214768;1281;22476;-71
2022/11/04 11:38:04;;;;;;;16.20;8.60;;;;;;;14.15;76.40;97665.23;214390;1281;139874;-69
2022/11/04 11:43:20;;;;;;;11.30;7.80;;;;;;;14.29;76.90;97657.77;215022;1290;138530;-71
2022/11/04 11:48:28;;;;;;;13.60;8.70;;;;;;;14.53;76.93;97645.17;214801;1279;141120;-70
2022/11/04 11:53:33;;;;;;;17.00;8.70;;;;;;;14.75;76.28;97640.34;214519;1310;138357;-70
2022/11/04 11:58:43;;;;;;;15.70;8.20;;;;;;;14.88;75.71;97636.21;214436;1310;138500;-72
2022/11/04 12:04:06;;;;;;;13.70;8.10;;;;;;;14.96;75.18;97641.50;214215;1310;137971;-70
2022/11/04 12:09:40;;;;;;;11.30;6.90;;;;;;;14.87;74.86;97642.73;214441;1287;22683;-71
2022/11/04 12:15:05;;;;;;;15.20;9.40;;;;;;;14.79;75.13;97638.56;214614;1286;22533;-70
2022/11/04 12:20:58;;;;;;;15.70;8.80;;;;;;;14.81;75.48;97637.56;214413;1278;138199;-71
2022/11/04 12:26:19;;;;;;;10.80;6.90;;;;;;;14.73;75.25;97637.04;213591;1286;138305;-75
2022/11/04 12:31:44;;;;;;;14.20;7.60;;;;;;;14.58;75.43;97637.20;214360;1285;138359;-75
2022/11/04 12:37:00;;;;;;;18.90;9.50;;;;;;;14.41;75.24;97632.59;214550;1288;138499;-76
2022/11/04 12:42:02;;;;;;;13.60;8.10;;;;;;;14.26;75.48;97627.14;214767;1286;138373;-74
2022/11/04 12:47:37;;;;;;;12.30;7.40;;;;;;;14.16;75.91;97619.73;215059;1287;138457;-76
2022/11/04 12:52:52;;;;;;;13.60;9.50;;;;;;;14.15;76.35;97607.06;214457;1279;138404;-74
2022/11/04 12:58:16;;;;;;;17.20;8.50;;;;;;;14.24;76.96;97610.91;214365;1280;138310;-75
2022/11/04 13:03:29;;;;;;;12.10;7.10;;;;;;;14.29;77.08;97619.25;214470;1287;24269;-75
2022/11/04 13:08:40;;;;;;;12.00;7.90;;;;;;;14.21;76.74;97615.98;214447;1283;138842;-76
2022/11/04 13:13:42;;;;;;;13.70;8.40;;;;;;;14.09;76.80;97608.17;214505;1287;138601;-74
2022/11/04 13:18:46;;;;;;;16.00;8.70;;;;;;;14.04;77.31;97612.81;214280;1310;138436;-74
2022/11/04 13:23:56;;;;;;;14.60;8.60;;;;;;;14.07;77.71;97611.37;214509;1280;138304;-74
2022/11/04 13:29:06;;;;;;;92.80;54.90;;;;;;;14.11;77.83;97609.38;214432;1287;138351;-74
2022/11/04 13:34:46;;;;;;;20.10;11.60;;;;;;;14.11;77.80;97603.99;214451;1303;138581;-73
2022/11/04 13:39:56;;;;;;;14.60;8.90;;;;;;;14.00;77.55;97605.23;214579;1279;138467;-72
2022/11/04 13:45:13;;;;;;;19.40;10.80;;;;;;;13.88;77.78;97612.11;215297;1287;22487;-72
2022/11/04 13:50:35;;;;;;;14.00;8.40;;;;;;;13.81;77.95;97627.97;214352;1293;138998;-72
2022/11/04 13:55:49;;;;;;;14.40;7.80;;;;;;;13.72;78.22;97635.83;214508;1280;138662;-74
2022/11/04 14:01:12;;;;;;;21.90;9.10;;;;;;;13.61;78.32;97630.89;214496;1277;138408;-74
2022/11/04 14:06:14;;;;;;;20.00;9.40;;;;;;;13.58;78.93;97627.62;214393;1283;138377;-73
2022/11/04 14:11:16;;;;;;;13.50;8.90;;;;;;;13.59;79.14;97618.96;214527;1280;138384;-73
2022/11/04 14:16:24;;;;;;;16.90;8.50;;;;;;;13.59;79.38;97614.83;214646;1286;138375;-73
2022/11/04 14:21:28;;;;;;;29.50;17.00;;;;;;;13.59;79.61;97625.98;214734;1283;22957;-72
2022/11/04 14:26:47;;;;;;;25.00;10.60;;;;;;;13.53;79.42;97631.41;214342;1280;138092;-72
2022/11/04 14:31:51;;;;;;;17.50;10.20;;;;;;;13.50;79.64;97620.56;214790;1280;138422;-72
2022/11/04 14:37:04;;;;;;;14.90;9.10;;;;;;;13.43;79.44;97630.77;214710;1279;139084;-73
2022/11/04 14:42:12;;;;;;;17.90;10.80;;;;;;;13.35;79.75;97625.90;215019;1278;138422;-76
2022/11/04 14:47:20;;;;;;;18.50;10.90;;;;;;;13.33;79.97;97622.75;215043;1283;138863;-72
2022/11/04 14:52:33;;;;;;;22.40;12.00;;;;;;;13.33;80.19;97619.27;214570;1280;138472;-73
2022/11/04 14:57:41;;;;;;;23.30;10.70;;;;;;;13.32;80.33;97624.94;214389;1285;138457;-70
2022/11/04 15:02:43;;;;;;;18.40;9.60;;;;;;;13.26;80.40;97625.50;214508;1283;22503;-71
2022/11/04 15:07:45;;;;;;;18.60;9.90;;;;;;;13.17;80.56;97615.38;214370;1295;25363;-71
2022/11/04 15:12:50;;;;;;;17.80;9.90;;;;;;;13.08;80.81;97597.88;214063;1292;25437;-72
2022/11/04 15:18:00;;;;;;;16.30;8.20;;;;;;;13.00;81.04;97591.00;213685;1311;25221;-73
2022/11/04 15:23:05;;;;;;;17.20;9.60;;;;;;;12.92;81.48;97580.12;213827;1311;24278;-73
2022/11/04 15:28:16;;;;;;;22.50;10.40;;;;;;;12.76;81.87;97580.69;213946;1311;23506;-73
2022/11/04 15:33:18;;;;;;;23.30;12.20;;;;;;;12.63;82.24;97576.23;213888;1311;23246;-72
2022/11/04 15:38:23;;;;;;;13.30;8.20;;;;;;;12.50;82.65;97574.34;213848;1297;22647;-73
2022/11/04 15:43:25;;;;;;;24.40;14.60;;;;;;;12.39;83.03;97570.58;213791;1311;22463;-73
2022/11/04 15:48:32;;;;;;;21.70;13.30;;;;;;;12.34;83.39;97556.13;213844;1311;24285;-73
2022/11/04 15:53:49;;;;;;;28.20;16.70;;;;;;;12.28;83.59;97553.77;214022;1296;25533;-73
2022/11/04 15:58:53;;;;;;;31.00;15.50;;;;;;;12.23;83.84;97562.95;213916;1311;22609;-73
2022/11/04 16:03:59;;;;;;;34.90;17.20;;;;;;;12.17;83.99;97554.31;214030;1311;23827;-71
2022/11/04 16:09:24;;;;;;;35.90;17.90;;;;;;;12.11;84.23;97552.84;214066;1310;24331;-72
2022/11/04 16:14:28;;;;;;;36.80;18.20;;;;;;;12.08;84.50;97557.62;213803;1311;25132;-72
2022/11/04 16:19:31;;;;;;;41.90;20.80;;;;;;;12.05;84.77;97557.14;213822;1310;23640;-72
2022/11/04 16:24:36;;;;;;;39.60;21.00;;;;;;;12.01;84.96;97560.74;213948;1303;23798;-73
2022/11/04 16:29:38;;;;;;;57.10;30.90;;;;;;;11.97;85.24;97562.07;213781;1311;23528;-71
2022/11/04 16:34:51;;;;;;;53.20;28.40;;;;;;;11.94;85.45;97557.00;213878;1311;22480;-72
2022/11/04 16:39:53;;;;;;;51.80;26.30;;;;;;;11.94;85.53;97559.38;213764;1311;23743;-72
2022/11/04 16:45:01;;;;;;;54.30;28.50;;;;;;;11.93;85.47;97563.91;213877;1311;23754;-72
2022/11/04 16:50:11;;;;;;;60.10;27.10;;;;;;;11.90;85.55;97566.80;213802;1311;25884;-73
2022/11/04 16:55:14;;;;;;;56.50;28.70;;;;;;;11.88;85.83;97563.16;213791;1304;22477;-72
2022/11/04 17:00:19;;;;;;;52.80;28.10;;;;;;;11.84;85.83;97561.27;213961;1310;25260;-72
2022/11/04 17:05:21;;;;;;;50.40;25.90;;;;;;;11.81;85.93;97561.23;214109;1312;22474;-72
2022/11/04 17:10:26;;;;;;;52.90;27.10;;;;;;;11.76;86.16;97549.02;213872;1310;22570;-72
2022/11/04 17:15:28;;;;;;;43.50;24.70;;;;;;;11.73;86.26;97540.32;213922;1310;24527;-73
2022/11/04 17:20:30;;;;;;;55.30;26.60;;;;;;;11.72;86.32;97533.73;213847;1310;22474;-73
2022/11/04 17:25:32;;;;;;;53.50;27.40;;;;;;;11.71;86.47;97530.71;213916;1305;22568;-72
2022/11/04 17:30:34;;;;;;;45.90;24.60;;;;;;;11.66;86.56;97525.73;213833;1311;26382;-72
2022/11/04 17:35:37;;;;;;;50.70;24.80;;;;;;;11.60;86.72;97529.46;213917;1310;25383;-72
2022/11/04 17:46:32;;;;;;;40.30;21.90;;;;;;;11.46;87.38;97526.25;213880;1311;25308;-72
2022/11/04 17:51:21;;;;;;;48.20;25.40;;;;;;;11.41;87.62;97521.55;213854;1311;22659;-72
2022/11/04 17:56:24;;;;;;;49.90;26.20;;;;;;;11.36;87.91;97520.06;213808;1311;25257;-72
2022/11/04 18:01:26;;;;;;;68.60;36.80;;;;;;;11.34;88.15;97524.09;213828;1311;22483;-72
2022/11/04 18:06:31;;;;;;;69.20;34.90;;;;;;;11.32;88.27;97529.65;213919;1310;24387;-72
2022/11/04 18:16:53;;;;;;;61.40;33.80;;;;;;;11.35;88.72;97523.98;213910;1311;25336;-72
2022/11/04 18:21:56;;;;;;;71.80;37.50;;;;;;;11.36;88.65;97520.14;213756;1310;22481;-73
2022/11/04 18:26:58;;;;;;;62.80;34.70;;;;;;;11.34;88.88;97514.02;213795;1311;22474;-73
2022/11/04 18:32:00;;;;;;;60.30;34.30;;;;;;;11.33;89.03;97508.85;213864;1311;24560;-72
2022/11/04 18:37:02;;;;;;;66.50;33.80;;;;;;;11.34;88.99;97508.19;213774;1311;25301;-73
2022/11/04 18:42:04;;;;;;;64.80;34.80;;;;;;;11.34;89.03;97501.84;213812;1310;25253;-73
2022/11/04 18:47:06;;;;;;;60.40;32.20;;;;;;;11.37;89.10;97503.52;213836;1310;22475;-75
2022/11/04 18:52:08;;;;;;;67.30;36.20;;;;;;;11.39;89.50;97510.43;214015;1311;22972;-73
2022/11/04 18:57:10;;;;;;;71.90;40.20;;;;;;;11.42;89.92;97508.73;213820;1311;22462;-73
2022/11/04 19:02:18;;;;;;;69.20;35.80;;;;;;;11.42;89.98;97518.86;213902;1310;22468;-73
2022/11/04 19:07:20;;;;;;;63.60;36.20;;;;;;;11.41;90.26;97534.73;213900;1310;23176;-73
2022/11/04 19:17:42;;;;;;;61.30;33.80;;;;;;;11.38;90.42;97525.80;213748;1311;22549;-73
2022/11/04 19:22:44;;;;;;;51.90;30.30;;;;;;;11.37;90.84;97527.91;213837;1311;25349;-73
2022/11/04 19:27:46;;;;;;;59.90;31.30;;;;;;;11.38;90.80;97544.24;213784;1311;23773;-72
2022/11/04 19:33:09;;;;;;;54.10;30.80;;;;;;;11.40;91.04;97553.92;213788;1308;22644;-73
2022/11/04 19:38:11;;;;;;;52.50;28.70;;;;;;;11.42;91.43;97556.69;213838;1310;22578;-74
2022/11/04 19:43:13;;;;;;;44.80;25.70;;;;;;;11.43;91.31;97560.46;213694;1311;25223;-74
2022/11/04 19:48:17;;;;;;;47.00;26.00;;;;;;;11.44;91.67;97556.93;213875;1311;22474;-73
2022/11/04 19:53:19;;;;;;;38.90;23.40;;;;;;;11.46;91.65;97561.67;213903;1311;25222;-72
2022/11/04 19:58:22;;;;;;;46.10;25.70;;;;;;;11.47;91.94;97574.80;213877;1311;24380;-72
2022/11/04 20:03:24;;;;;;;42.70;23.20;;;;;;;11.48;92.15;97588.02;213798;1311;24460;-73
2022/11/04 20:08:25;;;;;;;33.80;20.50;;;;;;;11.51;92.32;97585.89;213869;1310;24317;-73
2022/11/04 20:13:43;;;;;;;31.80;18.40;;;;;;;11.53;92.40;97586.98;213909;1310;23626;-73
2022/11/04 20:18:49;;;;;;;28.30;16.70;;;;;;;11.56;92.49;97603.02;213826;1311;24418;-73
2022/11/04 20:23:56;;;;;;;25.60;14.60;;;;;;;11.56;92.70;97616.00;214012;1310;22488;-73
2022/11/04 20:28:59;;;;;;;29.10;16.20;;;;;;;11.56;92.97;97634.21;213842;1308;22565;-73
2022/11/04 20:34:03;;;;;;;39.10;21.30;;;;;;;11.52;92.79;97646.87;213998;1310;22541;-73
2022/11/04 20:39:17;;;;;;;43.80;24.10;;;;;;;11.45;92.94;97652.52;213732;1310;25519;-72
2022/11/04 20:44:19;;;;;;;40.60;24.10;;;;;;;11.40;93.43;97661.17;213814;1310;22506;-71
2022/11/04 20:49:21;;;;;;;41.40;23.80;;;;;;;11.28;93.74;97665.90;213880;1308;25428;-73
2022/11/04 20:54:22;;;;;;;36.30;21.40;;;;;;;11.17;93.89;97672.25;213878;1310;25360;-73
2022/11/04 20:59:26;;;;;;;38.00;20.50;;;;;;;11.10;94.48;97680.61;213752;1310;22537;-73
2022/11/04 21:04:28;;;;;;;33.70;19.60;;;;;;;11.07;94.82;97677.06;213874;1311;25355;-73
2022/11/04 21:09:36;;;;;;;38.00;20.20;;;;;;;11.05;95.29;97673.96;213768;1310;22501;-72
2022/11/04 21:14:38;;;;;;;42.80;22.10;;;;;;;11.04;95.36;97665.53;213873;1310;22489;-73
2022/11/04 21:19:40;;;;;;;39.20;23.10;;;;;;;11.08;95.73;97669.52;213963;1310;22523;-73
2022/11/04 21:24:42;;;;;;;37.10;21.00;;;;;;;11.11;95.84;97674.84;213751;1310;22469;-73
2022/11/04 21:29:44;;;;;;;40.80;23.20;;;;;;;11.11;95.85;97678.82;213854;1310;22484;-73
2022/11/04 21:34:46;;;;;;;39.30;22.80;;;;;;;11.10;95.97;97678.50;213862;1310;24237;-72
2022/11/04 21:39:48;;;;;;;31.10;20.10;;;;;;;11.10;95.89;97681.87;213777;1310;22470;-73
2022/11/04 21:44:49;;;;;;;27.20;19.10;;;;;;;11.10;96.27;97685.44;213849;1310;24257;-72
2022/11/04 21:49:51;;;;;;;35.70;19.90;;;;;;;11.03;96.15;97685.76;213907;1308;22505;-72
2022/11/04 21:54:53;;;;;;;31.80;18.40;;;;;;;10.98;96.47;97692.52;213810;1310;24281;-72
2022/11/04 21:59:55;;;;;;;35.60;19.00;;;;;;;10.92;96.64;97695.45;213795;1310;24285;-72
2022/11/04 22:04:57;;;;;;;30.00;17.70;;;;;;;10.88;97.26;97699.28;213828;1310;22958;-71
2022/11/04 22:09:58;;;;;;;31.80;17.10;;;;;;;10.85;97.56;97694.33;213833;1310;24330;-72
2022/11/04 22:15:07;;;;;;;24.90;14.20;;;;;;;10.83;97.60;97694.77;213850;1303;22474;-73
2022/11/04 22:20:10;;;;;;;15.50;8.70;;;;;;;10.75;97.74;97697.89;213862;1310;22491;-73
2022/11/04 22:25:11;;;;;;;11.00;6.80;;;;;;;10.65;97.79;97706.02;213772;1310;22561;-71
2022/11/04 22:30:13;;;;;;;6.80;5.10;;;;;;;10.55;97.82;97711.23;213908;1310;22479;-72
2022/11/04 22:35:15;;;;;;;8.70;4.90;;;;;;;10.45;97.65;97708.88;213817;1311;22481;-72
2022/11/04 22:40:17;;;;;;;5.50;3.80;;;;;;;10.34;97.35;97701.41;213875;1310;22527;-72
2022/11/04 22:45:19;;;;;;;5.00;3.60;;;;;;;10.22;97.13;97697.23;213788;1311;26408;-72
2022/11/04 22:50:21;;;;;;;3.50;3.10;;;;;;;10.10;97.14;97700.43;213864;1310;25433;-72
2022/11/04 22:55:23;;;;;;;5.50;3.00;;;;;;;9.97;96.78;97695.77;213968;1309;22545;-72
2022/11/04 23:00:25;;;;;;;4.40;3.20;;;;;;;9.85;96.79;97692.55;213874;1309;22503;-72
2022/11/04 23:05:30;;;;;;;4.40;2.90;;;;;;;9.76;96.67;97696.23;213820;1305;23902;-72
2022/11/04 23:26:37;;;;;;;3.90;2.90;;;;;;;9.35;96.63;97712.30;213824;1310;22484;-73
2022/11/04 23:31:39;;;;;;;3.40;2.90;;;;;;;9.23;96.61;97707.89;213742;1310;22536;-72
2022/11/04 23:42:17;;;;;;;3.40;3.10;;;;;;;9.05;96.87;97730.35;213791;1310;23169;-72
